sensor_id;sensor_type;location;lat;lon;timestamp;temperature;humidity
23669;DHT22;12011;47.422;15.018;2023-07-31T00:00:19;14.80;99.90
23669;DHT22;12011;47.422;15.018;2023-07-31T00:02:49;14.80;99.90
23669;DHT22;12011;47.422;15.018;2023-07-31T00:05:21;14.80;99.90
23669;DHT22;12011;47.422;15.018;2023-07-31T00:07:51;14.90;99.90
23669;DHT22;12011;47.422;15.018;2023-07-31T00:10:21;14.90;99.90
23669;DHT22;12011;47.422;15.018;2023-07-31T00:12:50;14.90;99.90
23669;DHT22;12011;47.422;15.018;2023-07-31T00:15:20;14.90;99.90
23669;DHT22;12011;47.422;15.018;2023-07-31T00:17:49;14.90;99.90
23669;DHT22;12011;47.422;15.018;2023-07-31T00:20:22;14.80;99.90
23669;DHT22;12011;47.422;15.018;2023-07-31T00:22:51;14.70;99.90
23669;DHT22;12011;47.422;15.018;2023-07-31T00:25:21;14.70;99.90
23669;DHT22;12011;47.422;15.018;2023-07-31T00:27:50;14.60;99.90
23669;DHT22;12011;47.422;15.018;2023-07-31T00:30:22;14.60;99.90
23669;DHT22;12011;47.422;15.018;2023-07-31T00:32:54;14.60;99.90
23669;DHT22;12011;47.422;15.018;2023-07-31T00:35:26;14.60;99.90
23669;DHT22;12011;47.422;15.018;2023-07-31T00:37:57;14.40;99.90
23669;DHT22;12011;47.422;15.018;2023-07-31T00:40:27;14.40;99.90
23669;DHT22;12011;47.422;15.018;2023-07-31T00:42:58;14.40;99.90
23669;DHT22;12011;47.422;15.018;2023-07-31T00:45:28;14.40;99.90
23669;DHT22;12011;47.422;15.018;2023-07-31T00:47:59;14.40;99.90
23669;DHT22;12011;47.422;15.018;2023-07-31T00:50:31;14.40;99.90
23669;DHT22;12011;47.422;15.018;2023-07-31T00:53:03;14.40;99.90
23669;DHT22;12011;47.422;15.018;2023-07-31T00:55:33;14.40;99.90
23669;DHT22;12011;47.422;15.018;2023-07-31T00:58:03;14.40;99.90
23669;DHT22;12011;47.422;15.018;2023-07-31T01:00:32;14.40;99.90
23669;DHT22;12011;47.422;15.018;2023-07-31T01:03:03;14.40;99.90
23669;DHT22;12011;47.422;15.018;2023-07-31T01:05:43;14.40;99.90
23669;DHT22;12011;47.422;15.018;2023-07-31T01:08:26;14.50;99.90
23669;DHT22;12011;47.422;15.018;2023-07-31T01:11:05;14.50;99.90
23669;DHT22;12011;47.422;15.018;2023-07-31T01:13:38;14.50;99.90
23669;DHT22;12011;47.422;15.018;2023-07-31T01:16:08;14.60;99.90
23669;DHT22;12011;47.422;15.018;2023-07-31T01:18:38;14.60;99.90
23669;DHT22;12011;47.422;15.018;2023-07-31T01:21:30;14.60;99.90
23669;DHT22;12011;47.422;15.018;2023-07-31T01:24:30;14.60;99.90
23669;DHT22;12011;47.422;15.018;2023-07-31T01:27:12;14.60;99.90
23669;DHT22;12011;47.422;15.018;2023-07-31T01:29:50;14.50;99.90
23669;DHT22;12011;47.422;15.018;2023-07-31T01:32:27;14.40;99.90
23669;DHT22;12011;47.422;15.018;2023-07-31T01:34:59;14.30;99.90
23669;DHT22;12011;47.422;15.018;2023-07-31T01:37:31;14.20;99.90
23669;DHT22;12011;47.422;15.018;2023-07-31T01:40:03;14.20;99.90
23669;DHT22;12011;47.422;15.018;2023-07-31T01:42:36;14.10;99.90
23669;DHT22;12011;47.422;15.018;2023-07-31T01:45:07;14.10;99.90
23669;DHT22;12011;47.422;15.018;2023-07-31T01:47:37;14.10;99.90
23669;DHT22;12011;47.422;15.018;2023-07-31T01:50:08;14.10;99.90
23669;DHT22;12011;47.422;15.018;2023-07-31T01:52:38;14.00;99.90
23669;DHT22;12011;47.422;15.018;2023-07-31T01:55:09;14.00;99.90
23669;DHT22;12011;47.422;15.018;2023-07-31T01:57:41;13.90;99.90
23669;DHT22;12011;47.422;15.018;2023-07-31T02:00:11;13.50;99.90
23669;DHT22;12011;47.422;15.018;2023-07-31T02:02:43;13.50;99.90
23669;DHT22;12011;47.422;15.018;2023-07-31T02:05:13;13.50;99.90
23669;DHT22;12011;47.422;15.018;2023-07-31T02:07:43;13.60;99.90
23669;DHT22;12011;47.422;15.018;2023-07-31T02:10:12;13.50;99.90
23669;DHT22;12011;47.422;15.018;2023-07-31T02:12:45;13.40;99.90
23669;DHT22;12011;47.422;15.018;2023-07-31T02:15:14;13.40;99.90
23669;DHT22;12011;47.422;15.018;2023-07-31T02:17:45;13.40;99.90
23669;DHT22;12011;47.422;15.018;2023-07-31T02:20:14;13.40;99.90
23669;DHT22;12011;47.422;15.018;2023-07-31T02:22:44;13.40;99.90
23669;DHT22;12011;47.422;15.018;2023-07-31T02:25:14;13.40;99.90
23669;DHT22;12011;47.422;15.018;2023-07-31T02:27:48;13.40;99.90
23669;DHT22;12011;47.422;15.018;2023-07-31T02:30:17;13.40;99.90
23669;DHT22;12011;47.422;15.018;2023-07-31T02:32:47;13.50;99.90
23669;DHT22;12011;47.422;15.018;2023-07-31T02:35:17;13.50;99.90
23669;DHT22;12011;47.422;15.018;2023-07-31T02:37:46;13.50;99.90
23669;DHT22;12011;47.422;15.018;2023-07-31T02:40:16;13.40;99.90
23669;DHT22;12011;47.422;15.018;2023-07-31T02:42:48;13.20;99.90
23669;DHT22;12011;47.422;15.018;2023-07-31T02:45:18;13.10;99.90
23669;DHT22;12011;47.422;15.018;2023-07-31T02:47:47;13.20;99.90
23669;DHT22;12011;47.422;15.018;2023-07-31T02:50:17;13.20;99.90
23669;DHT22;12011;47.422;15.018;2023-07-31T02:52:47;13.30;99.90
23669;DHT22;12011;47.422;15.018;2023-07-31T02:55:17;13.10;99.90
23669;DHT22;12011;47.422;15.018;2023-07-31T02:57:49;13.10;99.90
23669;DHT22;12011;47.422;15.018;2023-07-31T03:00:21;13.20;99.90
23669;DHT22;12011;47.422;15.018;2023-07-31T03:02:50;13.10;99.90
23669;DHT22;12011;47.422;15.018;2023-07-31T03:05:20;13.10;99.90
23669;DHT22;12011;47.422;15.018;2023-07-31T03:07:49;13.00;99.90
23669;DHT22;12011;47.422;15.018;2023-07-31T03:10:21;13.00;99.90
23669;DHT22;12011;47.422;15.018;2023-07-31T03:12:53;13.00;99.90
23669;DHT22;12011;47.422;15.018;2023-07-31T03:15:23;13.10;99.90
23669;DHT22;12011;47.422;15.018;2023-07-31T03:17:52;13.20;99.90
23669;DHT22;12011;47.422;15.018;2023-07-31T03:20:22;13.80;99.90
23669;DHT22;12011;47.422;15.018;2023-07-31T03:22:51;13.30;99.90
23669;DHT22;12011;47.422;15.018;2023-07-31T03:25:21;13.30;99.90
23669;DHT22;12011;47.422;15.018;2023-07-31T03:27:53;13.20;99.90
23669;DHT22;12011;47.422;15.018;2023-07-31T03:30:24;13.10;99.90
23669;DHT22;12011;47.422;15.018;2023-07-31T03:32:53;12.90;99.90
23669;DHT22;12011;47.422;15.018;2023-07-31T03:35:23;13.00;99.90
23669;DHT22;12011;47.422;15.018;2023-07-31T03:37:54;13.20;99.90
23669;DHT22;12011;47.422;15.018;2023-07-31T03:40:23;13.20;99.90
23669;DHT22;12011;47.422;15.018;2023-07-31T03:42:56;13.20;99.90
23669;DHT22;12011;47.422;15.018;2023-07-31T03:45:25;13.20;99.90
23669;DHT22;12011;47.422;15.018;2023-07-31T03:47:55;13.20;99.90
23669;DHT22;12011;47.422;15.018;2023-07-31T03:50:26;13.20;99.90
23669;DHT22;12011;47.422;15.018;2023-07-31T03:52:56;13.20;99.90
23669;DHT22;12011;47.422;15.018;2023-07-31T03:55:25;13.20;99.90
23669;DHT22;12011;47.422;15.018;2023-07-31T03:57:57;13.30;99.90
23669;DHT22;12011;47.422;15.018;2023-07-31T04:00:27;12.70;99.90
23669;DHT22;12011;47.422;15.018;2023-07-31T04:02:57;13.10;99.90
23669;DHT22;12011;47.422;15.018;2023-07-31T04:05:26;13.10;99.90
23669;DHT22;12011;47.422;15.018;2023-07-31T04:07:56;13.10;99.90
23669;DHT22;12011;47.422;15.018;2023-07-31T04:10:25;13.20;99.90
23669;DHT22;12011;47.422;15.018;2023-07-31T04:12:58;13.20;99.90
23669;DHT22;12011;47.422;15.018;2023-07-31T04:15:28;13.30;99.90
23669;DHT22;12011;47.422;15.018;2023-07-31T04:17:58;13.40;99.90
23669;DHT22;12011;47.422;15.018;2023-07-31T04:20:27;13.50;99.90
23669;DHT22;12011;47.422;15.018;2023-07-31T04:22:57;13.50;99.90
23669;DHT22;12011;47.422;15.018;2023-07-31T04:25:28;13.60;99.90
23669;DHT22;12011;47.422;15.018;2023-07-31T04:28:02;13.70;99.90
23669;DHT22;12011;47.422;15.018;2023-07-31T04:30:32;13.70;99.90
23669;DHT22;12011;47.422;15.018;2023-07-31T04:33:02;13.70;99.90
23669;DHT22;12011;47.422;15.018;2023-07-31T04:35:32;13.80;99.90
23669;DHT22;12011;47.422;15.018;2023-07-31T04:38:02;13.80;99.90
23669;DHT22;12011;47.422;15.018;2023-07-31T04:40:32;13.70;99.90
23669;DHT22;12011;47.422;15.018;2023-07-31T04:43:04;13.80;99.90
23669;DHT22;12011;47.422;15.018;2023-07-31T04:45:33;13.90;99.90
23669;DHT22;12011;47.422;15.018;2023-07-31T04:48:03;13.90;99.90
23669;DHT22;12011;47.422;15.018;2023-07-31T04:50:33;14.10;99.90
23669;DHT22;12011;47.422;15.018;2023-07-31T04:53:03;14.20;99.90
23669;DHT22;12011;47.422;15.018;2023-07-31T04:55:32;14.30;99.90
23669;DHT22;12011;47.422;15.018;2023-07-31T04:58:05;15.00;99.90
23669;DHT22;12011;47.422;15.018;2023-07-31T05:00:35;16.30;99.90
23669;DHT22;12011;47.422;15.018;2023-07-31T05:03:04;17.40;99.90
23669;DHT22;12011;47.422;15.018;2023-07-31T05:05:34;18.00;99.90
23669;DHT22;12011;47.422;15.018;2023-07-31T05:08:03;18.20;99.40
23669;DHT22;12011;47.422;15.018;2023-07-31T05:10:33;18.00;99.90
23669;DHT22;12011;47.422;15.018;2023-07-31T05:13:07;18.10;99.90
23669;DHT22;12011;47.422;15.018;2023-07-31T05:15:36;18.40;99.90
23669;DHT22;12011;47.422;15.018;2023-07-31T05:18:06;18.40;99.50
23669;DHT22;12011;47.422;15.018;2023-07-31T05:20:35;19.10;96.80
23669;DHT22;12011;47.422;15.018;2023-07-31T05:23:05;19.60;93.30
23669;DHT22;12011;47.422;15.018;2023-07-31T05:25:35;20.10;96.30
23669;DHT22;12011;47.422;15.018;2023-07-31T05:28:07;20.70;90.50
23669;DHT22;12011;47.422;15.018;2023-07-31T05:30:37;20.60;89.30
23669;DHT22;12011;47.422;15.018;2023-07-31T05:33:06;20.80;88.80
23669;DHT22;12011;47.422;15.018;2023-07-31T05:35:36;21.40;89.20
23669;DHT22;12011;47.422;15.018;2023-07-31T05:38:05;22.60;79.50
23669;DHT22;12011;47.422;15.018;2023-07-31T05:40:35;23.30;80.70
23669;DHT22;12011;47.422;15.018;2023-07-31T05:43:07;23.90;71.70
23669;DHT22;12011;47.422;15.018;2023-07-31T05:45:37;24.40;63.90
23669;DHT22;12011;47.422;15.018;2023-07-31T05:48:06;24.60;72.40
23669;DHT22;12011;47.422;15.018;2023-07-31T05:50:36;25.50;66.90
23669;DHT22;12011;47.422;15.018;2023-07-31T05:53:06;25.60;63.20
23669;DHT22;12011;47.422;15.018;2023-07-31T05:55:36;26.10;59.80
23669;DHT22;12011;47.422;15.018;2023-07-31T05:58:08;26.40;56.40
23669;DHT22;12011;47.422;15.018;2023-07-31T06:00:38;25.80;53.10
23669;DHT22;12011;47.422;15.018;2023-07-31T06:03:08;25.20;53.90
23669;DHT22;12011;47.422;15.018;2023-07-31T06:05:37;25.30;58.10
23669;DHT22;12011;47.422;15.018;2023-07-31T06:08:07;25.70;54.50
23669;DHT22;12011;47.422;15.018;2023-07-31T06:10:36;25.90;54.40
23669;DHT22;12011;47.422;15.018;2023-07-31T06:13:08;25.60;54.70
23669;DHT22;12011;47.422;15.018;2023-07-31T06:15:38;25.60;54.90
23669;DHT22;12011;47.422;15.018;2023-07-31T06:18:08;25.30;60.40
23669;DHT22;12011;47.422;15.018;2023-07-31T06:20:37;25.00;58.60
23669;DHT22;12011;47.422;15.018;2023-07-31T06:23:08;24.30;58.30
23669;DHT22;12011;47.422;15.018;2023-07-31T06:25:37;24.20;56.70
23669;DHT22;12011;47.422;15.018;2023-07-31T06:28:10;24.30;59.50
23669;DHT22;12011;47.422;15.018;2023-07-31T06:30:39;25.60;54.00
23669;DHT22;12011;47.422;15.018;2023-07-31T06:33:09;26.30;48.40
23669;DHT22;12011;47.422;15.018;2023-07-31T06:35:40;26.60;47.00
23669;DHT22;12011;47.422;15.018;2023-07-31T06:38:10;26.70;47.60
23669;DHT22;12011;47.422;15.018;2023-07-31T06:40:39;27.90;49.30
23669;DHT22;12011;47.422;15.018;2023-07-31T06:43:11;28.10;48.40
23669;DHT22;12011;47.422;15.018;2023-07-31T06:45:41;28.80;42.60
23669;DHT22;12011;47.422;15.018;2023-07-31T06:48:12;28.50;41.90
23669;DHT22;12011;47.422;15.018;2023-07-31T06:50:41;29.00;44.70
23669;DHT22;12011;47.422;15.018;2023-07-31T06:53:11;28.80;41.50
23669;DHT22;12011;47.422;15.018;2023-07-31T06:55:41;29.20;44.70
23669;DHT22;12011;47.422;15.018;2023-07-31T06:58:13;29.40;41.40
23669;DHT22;12011;47.422;15.018;2023-07-31T07:00:42;29.80;41.70
23669;DHT22;12011;47.422;15.018;2023-07-31T07:03:12;28.70;41.00
23669;DHT22;12011;47.422;15.018;2023-07-31T07:05:42;28.20;40.70
23669;DHT22;12011;47.422;15.018;2023-07-31T07:08:12;27.90;42.90
23669;DHT22;12011;47.422;15.018;2023-07-31T07:10:42;28.10;41.30
23669;DHT22;12011;47.422;15.018;2023-07-31T07:13:14;28.40;41.60
23669;DHT22;12011;47.422;15.018;2023-07-31T07:15:48;28.70;42.10
23669;DHT22;12011;47.422;15.018;2023-07-31T07:18:18;28.50;40.70
23669;DHT22;12011;47.422;15.018;2023-07-31T07:20:50;29.40;45.30
23669;DHT22;12011;47.422;15.018;2023-07-31T07:23:21;30.40;39.70
23669;DHT22;12011;47.422;15.018;2023-07-31T07:25:50;30.90;39.50
23669;DHT22;12011;47.422;15.018;2023-07-31T07:28:23;31.20;39.70
23669;DHT22;12011;47.422;15.018;2023-07-31T07:30:54;30.80;38.40
23669;DHT22;12011;47.422;15.018;2023-07-31T07:33:24;30.30;38.60
23669;DHT22;12011;47.422;15.018;2023-07-31T07:35:53;29.40;37.90
23669;DHT22;12011;47.422;15.018;2023-07-31T07:38:23;29.20;39.20
23669;DHT22;12011;47.422;15.018;2023-07-31T07:40:53;29.10;39.10
23669;DHT22;12011;47.422;15.018;2023-07-31T07:43:25;28.70;40.50
23669;DHT22;12011;47.422;15.018;2023-07-31T07:45:54;28.70;40.50
23669;DHT22;12011;47.422;15.018;2023-07-31T07:48:24;28.30;42.00
23669;DHT22;12011;47.422;15.018;2023-07-31T07:50:54;28.80;44.20
23669;DHT22;12011;47.422;15.018;2023-07-31T07:53:23;28.60;41.60
23669;DHT22;12011;47.422;15.018;2023-07-31T07:55:53;28.40;42.60
23669;DHT22;12011;47.422;15.018;2023-07-31T07:58:25;29.00;41.40
23669;DHT22;12011;47.422;15.018;2023-07-31T08:00:54;28.50;39.80
23669;DHT22;12011;47.422;15.018;2023-07-31T08:03:24;28.80;40.30
23669;DHT22;12011;47.422;15.018;2023-07-31T08:05:58;29.20;39.20
23669;DHT22;12011;47.422;15.018;2023-07-31T08:08:28;29.50;41.00
23669;DHT22;12011;47.422;15.018;2023-07-31T08:10:58;29.50;41.80
23669;DHT22;12011;47.422;15.018;2023-07-31T08:13:30;29.70;40.20
23669;DHT22;12011;47.422;15.018;2023-07-31T08:15:59;30.40;38.70
23669;DHT22;12011;47.422;15.018;2023-07-31T08:18:30;29.20;38.70
23669;DHT22;12011;47.422;15.018;2023-07-31T08:21:01;29.20;41.40
23669;DHT22;12011;47.422;15.018;2023-07-31T08:23:30;28.60;39.10
23669;DHT22;12011;47.422;15.018;2023-07-31T08:26:00;29.40;41.10
23669;DHT22;12011;47.422;15.018;2023-07-31T08:28:32;29.50;40.60
23669;DHT22;12011;47.422;15.018;2023-07-31T08:31:02;30.30;41.00
23669;DHT22;12011;47.422;15.018;2023-07-31T08:33:32;30.80;39.80
23669;DHT22;12011;47.422;15.018;2023-07-31T08:36:02;31.60;41.50
23669;DHT22;12011;47.422;15.018;2023-07-31T08:38:31;31.20;34.30
23669;DHT22;12011;47.422;15.018;2023-07-31T08:41:03;31.00;36.60
23669;DHT22;12011;47.422;15.018;2023-07-31T08:43:36;31.30;43.80
23669;DHT22;12011;47.422;15.018;2023-07-31T08:46:07;30.70;37.10
23669;DHT22;12011;47.422;15.018;2023-07-31T08:48:37;31.00;40.50
23669;DHT22;12011;47.422;15.018;2023-07-31T08:51:08;31.30;36.60
23669;DHT22;12011;47.422;15.018;2023-07-31T08:53:37;30.90;39.10
23669;DHT22;12011;47.422;15.018;2023-07-31T08:56:07;30.70;39.70
23669;DHT22;12011;47.422;15.018;2023-07-31T08:58:40;31.10;40.50
23669;DHT22;12011;47.422;15.018;2023-07-31T09:01:11;32.10;41.80
23669;DHT22;12011;47.422;15.018;2023-07-31T09:03:42;32.70;41.30
23669;DHT22;12011;47.422;15.018;2023-07-31T09:06:15;32.80;39.60
23669;DHT22;12011;47.422;15.018;2023-07-31T09:08:47;32.70;40.50
23669;DHT22;12011;47.422;15.018;2023-07-31T09:11:19;33.00;37.80
23669;DHT22;12011;47.422;15.018;2023-07-31T09:13:53;32.80;37.80
23669;DHT22;12011;47.422;15.018;2023-07-31T09:16:28;33.20;37.70
23669;DHT22;12011;47.422;15.018;2023-07-31T09:18:59;32.50;37.40
23669;DHT22;12011;47.422;15.018;2023-07-31T09:21:29;31.40;37.30
23669;DHT22;12011;47.422;15.018;2023-07-31T09:23:59;31.10;38.30
23669;DHT22;12011;47.422;15.018;2023-07-31T09:26:33;30.30;36.10
23669;DHT22;12011;47.422;15.018;2023-07-31T09:29:19;30.10;36.10
23669;DHT22;12011;47.422;15.018;2023-07-31T09:31:50;31.40;39.70
23669;DHT22;12011;47.422;15.018;2023-07-31T09:34:27;31.30;37.80
23669;DHT22;12011;47.422;15.018;2023-07-31T09:37:02;31.10;37.60
23669;DHT22;12011;47.422;15.018;2023-07-31T09:39:32;31.20;36.70
23669;DHT22;12011;47.422;15.018;2023-07-31T09:42:24;30.40;35.60
23669;DHT22;12011;47.422;15.018;2023-07-31T09:45:07;29.80;36.20
23669;DHT22;12011;47.422;15.018;2023-07-31T09:47:38;29.30;37.90
23669;DHT22;12011;47.422;15.018;2023-07-31T09:50:08;29.30;42.40
23669;DHT22;12011;47.422;15.018;2023-07-31T09:52:38;29.40;42.50
23669;DHT22;12011;47.422;15.018;2023-07-31T09:55:08;30.50;40.20
23669;DHT22;12011;47.422;15.018;2023-07-31T09:57:41;31.50;39.40
23669;DHT22;12011;47.422;15.018;2023-07-31T10:00:16;31.90;38.50
23669;DHT22;12011;47.422;15.018;2023-07-31T10:02:51;31.50;34.90
23669;DHT22;12011;47.422;15.018;2023-07-31T10:05:21;30.70;39.40
23669;DHT22;12011;47.422;15.018;2023-07-31T10:07:54;30.30;35.70
23669;DHT22;12011;47.422;15.018;2023-07-31T10:10:25;30.30;36.30
23669;DHT22;12011;47.422;15.018;2023-07-31T10:12:59;30.50;41.90
23669;DHT22;12011;47.422;15.018;2023-07-31T10:15:32;30.80;36.50
23669;DHT22;12011;47.422;15.018;2023-07-31T10:18:02;31.70;34.70
23669;DHT22;12011;47.422;15.018;2023-07-31T10:20:35;31.90;35.80
23669;DHT22;12011;47.422;15.018;2023-07-31T10:23:06;32.30;34.60
23669;DHT22;12011;47.422;15.018;2023-07-31T10:25:37;32.40;36.60
23669;DHT22;12011;47.422;15.018;2023-07-31T10:28:08;33.20;38.30
23669;DHT22;12011;47.422;15.018;2023-07-31T10:30:41;32.00;33.40
23669;DHT22;12011;47.422;15.018;2023-07-31T10:33:15;30.60;37.00
23669;DHT22;12011;47.422;15.018;2023-07-31T10:35:47;29.50;36.20
23669;DHT22;12011;47.422;15.018;2023-07-31T10:38:19;30.10;44.30
23669;DHT22;12011;47.422;15.018;2023-07-31T10:40:50;29.90;35.10
23669;DHT22;12011;47.422;15.018;2023-07-31T10:43:25;29.50;35.00
23669;DHT22;12011;47.422;15.018;2023-07-31T10:45:59;29.00;37.60
23669;DHT22;12011;47.422;15.018;2023-07-31T10:48:33;29.20;43.40
23669;DHT22;12011;47.422;15.018;2023-07-31T10:51:08;29.60;41.10
23669;DHT22;12011;47.422;15.018;2023-07-31T10:53:40;29.10;40.40
23669;DHT22;12011;47.422;15.018;2023-07-31T10:56:10;28.60;35.60
23669;DHT22;12011;47.422;15.018;2023-07-31T10:58:45;28.90;43.80
23669;DHT22;12011;47.422;15.018;2023-07-31T11:01:17;29.50;39.40
23669;DHT22;12011;47.422;15.018;2023-07-31T11:03:48;30.20;39.70
23669;DHT22;12011;47.422;15.018;2023-07-31T11:06:19;31.00;41.30
23669;DHT22;12011;47.422;15.018;2023-07-31T11:08:50;31.30;38.20
23669;DHT22;12011;47.422;15.018;2023-07-31T11:11:21;31.30;41.70
23669;DHT22;12011;47.422;15.018;2023-07-31T11:13:51;31.60;37.80
23669;DHT22;12011;47.422;15.018;2023-07-31T11:16:25;31.70;38.60
23669;DHT22;12011;47.422;15.018;2023-07-31T11:18:55;31.70;42.20
23669;DHT22;12011;47.422;15.018;2023-07-31T11:21:25;30.60;38.60
23669;DHT22;12011;47.422;15.018;2023-07-31T11:23:57;29.90;38.30
23669;DHT22;12011;47.422;15.018;2023-07-31T11:26:27;29.20;38.40
23669;DHT22;12011;47.422;15.018;2023-07-31T11:28:57;28.80;40.50
23669;DHT22;12011;47.422;15.018;2023-07-31T11:31:29;28.30;39.80
23669;DHT22;12011;47.422;15.018;2023-07-31T11:34:05;28.00;40.60
23669;DHT22;12011;47.422;15.018;2023-07-31T11:36:35;28.30;40.90
23669;DHT22;12011;47.422;15.018;2023-07-31T11:39:05;27.80;42.10
23669;DHT22;12011;47.422;15.018;2023-07-31T11:41:41;27.70;43.90
23669;DHT22;12011;47.422;15.018;2023-07-31T11:44:11;27.80;41.60
23669;DHT22;12011;47.422;15.018;2023-07-31T11:46:43;28.10;41.70
23669;DHT22;12011;47.422;15.018;2023-07-31T11:49:13;27.80;38.70
23669;DHT22;12011;47.422;15.018;2023-07-31T11:51:43;27.50;42.10
23669;DHT22;12011;47.422;15.018;2023-07-31T11:54:13;27.70;46.60
23669;DHT22;12011;47.422;15.018;2023-07-31T11:56:44;28.90;36.90
23669;DHT22;12011;47.422;15.018;2023-07-31T11:59:14;29.30;38.00
23669;DHT22;12011;47.422;15.018;2023-07-31T12:01:46;29.00;41.80
23669;DHT22;12011;47.422;15.018;2023-07-31T12:04:19;29.40;45.10
23669;DHT22;12011;47.422;15.018;2023-07-31T12:06:53;29.50;44.70
23669;DHT22;12011;47.422;15.018;2023-07-31T12:09:22;29.70;37.00
23669;DHT22;12011;47.422;15.018;2023-07-31T12:11:52;29.20;40.20
23669;DHT22;12011;47.422;15.018;2023-07-31T12:14:24;29.30;36.70
23669;DHT22;12011;47.422;15.018;2023-07-31T12:17:03;29.20;41.70
23669;DHT22;12011;47.422;15.018;2023-07-31T12:19:34;29.30;43.40
23669;DHT22;12011;47.422;15.018;2023-07-31T12:22:11;29.10;36.90
23669;DHT22;12011;47.422;15.018;2023-07-31T12:24:43;28.30;37.70
23669;DHT22;12011;47.422;15.018;2023-07-31T12:27:14;28.60;36.30
23669;DHT22;12011;47.422;15.018;2023-07-31T12:29:44;29.00;42.10
23669;DHT22;12011;47.422;15.018;2023-07-31T12:32:24;29.10;41.30
23669;DHT22;12011;47.422;15.018;2023-07-31T12:34:59;28.80;37.90
23669;DHT22;12011;47.422;15.018;2023-07-31T12:37:30;28.70;38.30
23669;DHT22;12011;47.422;15.018;2023-07-31T12:39:59;28.60;38.30
23669;DHT22;12011;47.422;15.018;2023-07-31T12:42:31;29.00;38.60
23669;DHT22;12011;47.422;15.018;2023-07-31T12:45:00;28.60;37.10
23669;DHT22;12011;47.422;15.018;2023-07-31T12:47:33;29.20;44.50
23669;DHT22;12011;47.422;15.018;2023-07-31T12:50:02;29.40;38.10
23669;DHT22;12011;47.422;15.018;2023-07-31T12:52:32;29.80;41.70
23669;DHT22;12011;47.422;15.018;2023-07-31T12:55:02;29.50;41.20
23669;DHT22;12011;47.422;15.018;2023-07-31T12:57:32;29.10;42.70
23669;DHT22;12011;47.422;15.018;2023-07-31T13:00:02;28.80;43.30
23669;DHT22;12011;47.422;15.018;2023-07-31T13:02:35;28.60;43.40
23669;DHT22;12011;47.422;15.018;2023-07-31T13:05:05;28.80;41.70
23669;DHT22;12011;47.422;15.018;2023-07-31T13:07:35;28.80;43.60
23669;DHT22;12011;47.422;15.018;2023-07-31T13:10:06;28.40;45.70
23669;DHT22;12011;47.422;15.018;2023-07-31T13:12:36;28.30;43.50
23669;DHT22;12011;47.422;15.018;2023-07-31T13:15:07;28.80;44.60
23669;DHT22;12011;47.422;15.018;2023-07-31T13:17:40;29.10;45.20
23669;DHT22;12011;47.422;15.018;2023-07-31T13:20:10;29.10;43.40
23669;DHT22;12011;47.422;15.018;2023-07-31T13:22:40;29.10;43.00
23669;DHT22;12011;47.422;15.018;2023-07-31T13:25:09;28.80;42.60
23669;DHT22;12011;47.422;15.018;2023-07-31T13:27:39;28.90;45.50
23669;DHT22;12011;47.422;15.018;2023-07-31T13:30:09;29.20;45.80
23669;DHT22;12011;47.422;15.018;2023-07-31T13:32:41;29.20;44.80
23669;DHT22;12011;47.422;15.018;2023-07-31T13:35:11;28.60;42.80
23669;DHT22;12011;47.422;15.018;2023-07-31T13:37:40;27.30;43.00
23669;DHT22;12011;47.422;15.018;2023-07-31T13:40:11;27.30;42.80
23669;DHT22;12011;47.422;15.018;2023-07-31T13:42:40;27.20;52.10
23669;DHT22;12011;47.422;15.018;2023-07-31T13:45:11;27.50;48.60
23669;DHT22;12011;47.422;15.018;2023-07-31T13:47:43;27.70;48.90
23669;DHT22;12011;47.422;15.018;2023-07-31T13:50:12;27.70;47.60
23669;DHT22;12011;47.422;15.018;2023-07-31T13:52:43;27.30;47.30
23669;DHT22;12011;47.422;15.018;2023-07-31T13:55:12;27.20;47.80
23669;DHT22;12011;47.422;15.018;2023-07-31T13:57:42;27.20;49.10
23669;DHT22;12011;47.422;15.018;2023-07-31T14:00:13;26.90;50.20
23669;DHT22;12011;47.422;15.018;2023-07-31T14:02:46;27.20;50.20
23669;DHT22;12011;47.422;15.018;2023-07-31T14:05:15;27.10;48.60
23669;DHT22;12011;47.422;15.018;2023-07-31T14:07:45;27.70;50.10
23669;DHT22;12011;47.422;15.018;2023-07-31T14:10:15;27.20;47.80
23669;DHT22;12011;47.422;15.018;2023-07-31T14:12:44;26.60;47.40
23669;DHT22;12011;47.422;15.018;2023-07-31T14:15:14;26.20;47.90
23669;DHT22;12011;47.422;15.018;2023-07-31T14:17:46;25.90;49.50
23669;DHT22;12011;47.422;15.018;2023-07-31T14:20:16;26.20;55.50
23669;DHT22;12011;47.422;15.018;2023-07-31T14:22:46;27.00;50.00
23669;DHT22;12011;47.422;15.018;2023-07-31T14:25:15;27.60;48.40
23669;DHT22;12011;47.422;15.018;2023-07-31T14:27:45;27.50;49.80
23669;DHT22;12011;47.422;15.018;2023-07-31T14:30:14;27.60;50.60
23669;DHT22;12011;47.422;15.018;2023-07-31T14:32:47;27.70;45.20
23669;DHT22;12011;47.422;15.018;2023-07-31T14:35:17;27.70;44.00
23669;DHT22;12011;47.422;15.018;2023-07-31T14:37:46;28.20;48.30
23669;DHT22;12011;47.422;15.018;2023-07-31T14:40:16;28.50;47.60
23669;DHT22;12011;47.422;15.018;2023-07-31T14:42:45;28.60;42.80
23669;DHT22;12011;47.422;15.018;2023-07-31T14:45:15;28.60;47.80
23669;DHT22;12011;47.422;15.018;2023-07-31T14:47:47;28.60;48.10
23669;DHT22;12011;47.422;15.018;2023-07-31T14:50:17;28.00;44.50
23669;DHT22;12011;47.422;15.018;2023-07-31T14:52:46;27.80;45.60
23669;DHT22;12011;47.422;15.018;2023-07-31T14:55:16;27.40;45.60
23669;DHT22;12011;47.422;15.018;2023-07-31T14:57:46;27.30;51.30
23669;DHT22;12011;47.422;15.018;2023-07-31T15:00:16;27.00;52.20
23669;DHT22;12011;47.422;15.018;2023-07-31T15:02:49;27.40;50.80
23669;DHT22;12011;47.422;15.018;2023-07-31T15:05:18;27.40;49.50
23669;DHT22;12011;47.422;15.018;2023-07-31T15:07:48;27.80;53.80
23669;DHT22;12011;47.422;15.018;2023-07-31T15:10:18;27.80;46.00
23669;DHT22;12011;47.422;15.018;2023-07-31T15:12:48;27.80;45.80
23669;DHT22;12011;47.422;15.018;2023-07-31T15:15:17;27.70;48.30
23669;DHT22;12011;47.422;15.018;2023-07-31T15:17:50;27.50;47.10
23669;DHT22;12011;47.422;15.018;2023-07-31T15:20:20;27.60;50.30
23669;DHT22;12011;47.422;15.018;2023-07-31T15:22:49;27.60;47.90
23669;DHT22;12011;47.422;15.018;2023-07-31T15:25:19;27.50;46.80
23669;DHT22;12011;47.422;15.018;2023-07-31T15:27:50;27.50;49.20
23669;DHT22;12011;47.422;15.018;2023-07-31T15:30:20;27.50;47.70
23669;DHT22;12011;47.422;15.018;2023-07-31T15:32:52;27.30;49.10
23669;DHT22;12011;47.422;15.018;2023-07-31T15:35:22;27.10;50.40
23669;DHT22;12011;47.422;15.018;2023-07-31T15:37:51;27.20;50.80